createdAt,value
2018-09-21T00:01:10.191Z,19.25
2018-09-21T00:03:38.484Z,19.33
2018-09-21T00:06:06.715Z,19.18
2018-09-21T00:08:34.856Z,19.23
2018-09-21T00:11:02.970Z,19.16
2018-09-21T00:13:31.153Z,19.16
2018-09-21T00:15:59.275Z,19.27
2018-09-21T00:18:27.423Z,19.19
2018-09-21T00:20:55.559Z,19.26
2018-09-21T00:23:23.792Z,19.25
2018-09-21T00:25:51.951Z,19.23
2018-09-21T00:28:20.322Z,19.25
2018-09-21T00:30:49.177Z,19.03
2018-09-21T00:33:17.384Z,18.98
2018-09-21T00:35:45.585Z,18.89
2018-09-21T00:38:14.307Z,19.06
2018-09-21T00:40:42.486Z,18.97
2018-09-21T00:43:10.623Z,19.02
2018-09-21T00:45:38.796Z,19.00
2018-09-21T00:48:06.985Z,18.96
2018-09-21T00:50:35.287Z,18.99
2018-09-21T00:53:03.529Z,18.95
2018-09-21T00:55:31.697Z,18.87
2018-09-21T00:57:59.776Z,18.79
2018-09-21T01:00:27.949Z,18.84
2018-09-21T01:02:56.729Z,18.86
2018-09-21T01:05:24.933Z,18.87
2018-09-21T01:07:53.151Z,18.80
2018-09-21T01:10:21.359Z,18.69
2018-09-21T01:12:49.766Z,18.72
2018-09-21T01:15:18.240Z,18.77
2018-09-21T01:17:47.083Z,18.66
2018-09-21T01:20:15.292Z,18.65
2018-09-21T01:22:43.464Z,18.65
2018-09-21T01:25:11.674Z,18.63
2018-09-21T01:27:39.981Z,18.53
2018-09-21T01:30:08.223Z,18.63
2018-09-21T01:32:36.410Z,18.59
2018-09-21T01:35:04.671Z,18.48
2018-09-21T01:37:32.909Z,18.53
2018-09-21T01:40:01.203Z,18.40
2018-09-21T01:42:29.435Z,18.35
2018-09-21T01:44:57.684Z,18.31
2018-09-21T01:47:25.901Z,18.28
2018-09-21T01:49:54.181Z,18.18
2018-09-21T01:52:22.454Z,18.41
2018-09-21T01:54:51.349Z,18.34
2018-09-21T01:57:19.783Z,18.28
2018-09-21T01:59:48.105Z,18.36
2018-09-21T02:02:16.329Z,18.38
2018-09-21T02:04:44.484Z,18.50
2018-09-21T02:07:12.997Z,18.40
2018-09-21T02:09:41.410Z,18.32
2018-09-21T02:12:09.591Z,18.38
2018-09-21T02:14:37.721Z,18.46
2018-09-21T02:17:05.880Z,18.49
2018-09-21T02:19:34.243Z,18.45
2018-09-21T02:22:02.503Z,18.43
2018-09-21T02:24:30.689Z,18.56
2018-09-21T02:26:59.787Z,18.50
2018-09-21T02:29:27.992Z,18.37
2018-09-21T02:31:56.211Z,18.32
2018-09-21T02:34:24.724Z,18.42
2018-09-21T02:36:53.724Z,18.40
2018-09-21T02:39:21.891Z,18.43
2018-09-21T02:41:50.036Z,18.42
2018-09-21T02:44:19.461Z,18.37
2018-09-21T02:46:47.665Z,18.44
2018-09-21T02:49:15.901Z,18.44
2018-09-21T02:51:44.099Z,18.53
2018-09-21T02:54:12.424Z,18.48
2018-09-21T02:56:41.353Z,18.48
2018-09-21T02:59:09.573Z,18.50
2018-09-21T03:01:37.730Z,18.57
2018-09-21T03:04:06.183Z,18.57
2018-09-21T03:09:01.991Z,18.52
2018-09-21T03:11:30.184Z,18.49
2018-09-21T03:13:58.375Z,18.54
2018-09-21T03:16:26.748Z,18.53
2018-09-21T03:18:54.951Z,18.49
2018-09-21T03:21:23.201Z,18.46
2018-09-21T03:23:51.607Z,18.42
2018-09-21T03:26:19.873Z,18.50
2018-09-21T03:28:48.061Z,18.50
2018-09-21T03:31:16.285Z,18.47
2018-09-21T03:33:44.556Z,18.55
2018-09-21T03:36:12.848Z,18.47
2018-09-21T03:38:41.056Z,18.55
2018-09-21T03:41:09.353Z,18.54
2018-09-21T03:43:38.485Z,18.53
2018-09-21T03:46:06.747Z,18.54
2018-09-21T03:48:35.019Z,18.50
2018-09-21T03:51:03.206Z,18.62
2018-09-21T03:53:31.559Z,18.53
2018-09-21T03:55:59.760Z,18.50
2018-09-21T03:58:27.941Z,18.54
2018-09-21T04:00:56.339Z,18.61
2018-09-21T04:03:25.771Z,18.59
2018-09-21T04:05:53.987Z,18.49
2018-09-21T04:08:22.222Z,18.35
2018-09-21T04:10:50.669Z,18.39
2018-09-21T04:13:18.821Z,18.55
2018-09-21T04:15:47.172Z,18.44
2018-09-21T04:18:16.044Z,18.41
2018-09-21T04:20:44.443Z,18.42
2018-09-21T04:23:12.773Z,18.59
2018-09-21T04:25:41.559Z,18.49
2018-09-21T04:28:09.768Z,18.35
2018-09-21T04:30:38.670Z,18.39
2018-09-21T04:33:06.796Z,18.46
2018-09-21T04:35:35.072Z,18.57
2018-09-21T04:38:03.260Z,18.64
2018-09-21T04:40:31.531Z,18.58
2018-09-21T04:42:59.975Z,18.66
2018-09-21T04:45:33.328Z,18.67
2018-09-21T04:48:06.176Z,18.66
2018-09-21T04:50:34.655Z,18.62
2018-09-21T04:53:02.816Z,18.59
2018-09-21T04:55:31.219Z,18.65
2018-09-21T04:57:59.385Z,18.62
2018-09-21T05:00:27.672Z,18.55
2018-09-21T05:02:55.837Z,18.63
2018-09-21T05:05:25.490Z,18.47
2018-09-21T05:07:56.262Z,18.50
2018-09-21T05:10:27.175Z,18.58
2018-09-21T05:12:55.484Z,18.48
2018-09-21T05:15:23.677Z,18.60
2018-09-21T05:17:51.852Z,18.75
2018-09-21T05:20:28.663Z,18.77
2018-09-21T05:22:56.971Z,18.87
2018-09-21T05:25:25.178Z,18.99
2018-09-21T05:27:53.494Z,19.07
2018-09-21T05:30:21.740Z,19.14
2018-09-21T05:32:50.497Z,19.26
2018-09-21T05:35:19.664Z,19.42
2018-09-21T05:37:47.916Z,19.61
2018-09-21T05:40:16.150Z,19.61
2018-09-21T05:42:44.467Z,19.69
2018-09-21T05:45:12.626Z,19.69
2018-09-21T05:47:40.915Z,19.75
2018-09-21T05:50:09.205Z,20.00
2018-09-21T05:52:37.539Z,20.02
2018-09-21T05:55:06.033Z,20.03
2018-09-21T05:57:39.097Z,20.20
2018-09-21T06:00:07.392Z,20.32
2018-09-21T06:02:35.709Z,20.42
2018-09-21T06:05:05.322Z,20.49
2018-09-21T06:07:34.105Z,20.57
2018-09-21T06:10:02.843Z,20.67
2018-09-21T06:12:31.110Z,20.78
2018-09-21T06:14:59.455Z,20.77
2018-09-21T06:17:28.862Z,20.73
2018-09-21T06:19:57.147Z,20.94
2018-09-21T06:22:29.613Z,21.00
2018-09-21T06:24:58.365Z,21.08
2018-09-21T06:27:27.627Z,21.26
2018-09-21T06:29:55.762Z,21.34
2018-09-21T06:32:24.313Z,21.35
2018-09-21T06:34:56.553Z,21.49
2018-09-21T06:37:25.419Z,21.62
2018-09-21T06:39:54.111Z,21.78
2018-09-21T06:42:22.678Z,22.00
2018-09-21T06:44:51.233Z,22.28
2018-09-21T06:47:19.622Z,22.25
2018-09-21T06:49:47.845Z,22.20
2018-09-21T06:52:16.268Z,22.31
2018-09-21T06:54:44.468Z,22.44
2018-09-21T06:57:12.785Z,22.41
2018-09-21T06:59:41.497Z,22.47
2018-09-21T07:02:09.661Z,22.57
2018-09-21T07:04:38.891Z,22.43
2018-09-21T07:07:07.213Z,22.50
2018-09-21T07:12:02.747Z,22.63
2018-09-21T07:14:30.949Z,22.85
2018-09-21T07:16:59.220Z,22.91
2018-09-21T07:19:27.477Z,22.81
2018-09-21T07:21:56.585Z,22.87
2018-09-21T07:24:24.878Z,22.85
2018-09-21T07:26:53.137Z,22.88
2018-09-21T07:29:21.344Z,22.89
2018-09-21T07:31:49.542Z,22.77
2018-09-21T07:34:17.752Z,22.78
2018-09-21T07:36:46.947Z,22.73
2018-09-21T07:39:15.159Z,22.64
2018-09-21T07:41:43.300Z,22.68
2018-09-21T07:44:11.839Z,22.80
2018-09-21T07:46:40.097Z,22.73
2018-09-21T07:49:08.354Z,22.71
2018-09-21T07:51:36.623Z,22.85
2018-09-21T07:54:05.424Z,22.78
2018-09-21T07:56:33.701Z,22.89
2018-09-21T07:59:01.943Z,23.03
2018-09-21T08:01:30.185Z,23.09
2018-09-21T08:03:58.833Z,23.15
2018-09-21T08:06:27.226Z,23.40
2018-09-21T08:08:55.387Z,23.51
2018-09-21T08:11:23.577Z,23.61
2018-09-21T08:13:51.880Z,23.92
2018-09-21T08:16:20.672Z,24.04
2018-09-21T08:18:49.058Z,24.19
2018-09-21T08:21:17.203Z,24.18
2018-09-21T08:23:45.415Z,24.22
2018-09-21T08:26:13.665Z,24.28
2018-09-21T08:28:41.831Z,24.33
2018-09-21T08:31:10.602Z,24.34
2018-09-21T08:33:38.776Z,24.41
2018-09-21T08:36:07.172Z,24.44
2018-09-21T08:38:35.446Z,24.50
2018-09-21T08:41:03.595Z,24.55
2018-09-21T08:43:31.976Z,24.61
2018-09-21T08:46:00.127Z,24.78
2018-09-21T08:48:28.304Z,24.76
2018-09-21T08:50:56.517Z,24.92
2018-09-21T08:53:24.759Z,24.90
2018-09-21T08:55:52.943Z,24.94
2018-09-21T08:58:25.647Z,25.01
2018-09-21T09:00:53.906Z,25.05
2018-09-21T09:03:22.140Z,25.06
2018-09-21T09:05:52.849Z,25.19
2018-09-21T09:08:22.416Z,25.14
2018-09-21T09:10:50.573Z,25.10
2018-09-21T09:13:19.430Z,25.18
2018-09-21T09:15:48.088Z,25.28
2018-09-21T09:18:16.329Z,25.35
2018-09-21T09:20:47.791Z,25.49
2018-09-21T09:23:16.083Z,25.69
2018-09-21T09:25:44.148Z,25.79
2018-09-21T09:28:12.383Z,25.86
2018-09-21T09:30:40.738Z,25.94
2018-09-21T09:33:08.989Z,26.00
2018-09-21T09:35:37.127Z,26.05
2018-09-21T09:38:05.351Z,26.23
2018-09-21T09:40:33.595Z,26.41
2018-09-21T09:43:02.621Z,26.24
2018-09-21T09:45:30.682Z,26.32
2018-09-21T09:47:59.005Z,26.37
2018-09-21T09:50:27.242Z,26.54
2018-09-21T09:52:55.497Z,26.66
2018-09-21T09:55:24.570Z,26.80
2018-09-21T09:57:52.795Z,26.95
2018-09-21T10:00:26.507Z,26.82
2018-09-21T10:02:55.297Z,26.80
2018-09-21T10:05:23.845Z,26.95
2018-09-21T10:07:52.030Z,27.07
2018-09-21T10:10:20.233Z,27.20
2018-09-21T10:12:48.449Z,27.25
2018-09-21T10:15:18.495Z,27.29
2018-09-21T10:17:46.821Z,27.39
2018-09-21T10:20:15.274Z,27.41
2018-09-21T10:22:43.497Z,27.59
2018-09-21T10:25:11.793Z,27.58
2018-09-21T10:27:40.006Z,27.75
2018-09-21T10:30:08.257Z,28.00
2018-09-21T10:32:36.537Z,28.38
2018-09-21T10:35:05.062Z,28.29
2018-09-21T10:37:33.187Z,28.26
2018-09-21T10:40:01.761Z,28.27
2018-09-21T10:42:29.955Z,28.23
2018-09-21T10:44:58.201Z,28.35
2018-09-21T10:47:26.481Z,28.38
2018-09-21T10:49:54.691Z,28.51
2018-09-21T10:52:23.097Z,28.58
2018-09-21T10:54:51.326Z,28.66
2018-09-21T10:59:46.719Z,28.79
2018-09-21T11:02:14.953Z,28.95
2018-09-21T11:04:43.185Z,28.75
2018-09-21T11:07:11.439Z,28.67
2018-09-21T11:09:39.874Z,28.52
2018-09-21T11:12:08.070Z,28.65
2018-09-21T11:14:36.439Z,28.77
2018-09-21T11:17:07.661Z,28.61
2018-09-21T11:19:35.991Z,28.60
2018-09-21T11:22:04.505Z,28.61
2018-09-21T11:24:32.645Z,28.86
2018-09-21T11:27:00.987Z,29.04
2018-09-21T11:29:29.185Z,29.29
2018-09-21T11:31:57.455Z,29.31
2018-09-21T11:34:25.694Z,29.32
2018-09-21T11:36:55.275Z,29.60
2018-09-21T11:39:23.572Z,29.83
2018-09-21T11:41:53.465Z,29.89
2018-09-21T11:44:22.191Z,29.94
2018-09-21T11:46:50.555Z,29.99
2018-09-21T11:49:18.833Z,30.06
2018-09-21T11:51:47.056Z,30.17
2018-09-21T11:54:15.221Z,30.03
2018-09-21T11:56:43.480Z,29.89
2018-09-21T11:59:12.637Z,29.98
2018-09-21T12:01:40.919Z,29.86
2018-09-21T12:04:09.083Z,29.67
2018-09-21T12:06:37.872Z,29.57
2018-09-21T12:09:07.015Z,29.68
2018-09-21T12:11:35.411Z,29.67
2018-09-21T12:14:03.972Z,29.57
2018-09-21T12:16:32.151Z,29.54
2018-09-21T12:19:00.336Z,29.60
2018-09-21T12:21:28.730Z,29.46
2018-09-21T12:23:57.018Z,29.41
2018-09-21T12:26:25.347Z,29.44
2018-09-21T12:28:53.485Z,29.52
2018-09-21T12:31:21.747Z,29.52
2018-09-21T12:33:50.121Z,29.52
2018-09-21T12:36:18.452Z,29.58
2018-09-21T12:38:46.653Z,29.71
2018-09-21T12:41:15.290Z,29.75
2018-09-21T12:43:43.579Z,29.90
2018-09-21T12:46:27.270Z,29.88
2018-09-21T12:48:58.604Z,29.86
2018-09-21T12:51:29.405Z,29.79
2018-09-21T12:53:58.475Z,29.56
2018-09-21T12:56:27.127Z,29.54
2018-09-21T12:58:55.406Z,29.48
2018-09-21T13:01:23.689Z,29.47
2018-09-21T13:03:52.624Z,29.51
2018-09-21T13:06:21.113Z,29.33
2018-09-21T13:08:49.242Z,29.19
2018-09-21T13:11:17.440Z,29.15
2018-09-21T13:13:46.295Z,29.17
2018-09-21T13:16:14.518Z,29.15
2018-09-21T13:18:43.001Z,29.00
2018-09-21T13:21:11.236Z,29.01
2018-09-21T13:23:39.696Z,29.00
2018-09-21T13:26:07.971Z,29.09
2018-09-21T13:28:36.377Z,29.03
2018-09-21T13:31:04.917Z,28.94
2018-09-21T13:33:33.113Z,28.95
2018-09-21T13:36:01.296Z,28.89
2018-09-21T13:38:29.618Z,28.69
2018-09-21T13:40:57.913Z,28.50
2018-09-21T13:43:26.170Z,28.49
2018-09-21T13:45:54.461Z,28.30
2018-09-21T13:48:23.559Z,28.26
2018-09-21T13:50:52.789Z,28.12
2018-09-21T13:53:20.970Z,28.05
2018-09-21T13:55:49.856Z,28.05
2018-09-21T13:58:18.646Z,27.99
2018-09-21T14:00:47.149Z,27.96
2018-09-21T14:03:16.213Z,27.90
2018-09-21T14:05:44.407Z,27.95
2018-09-21T14:08:12.709Z,27.73
2018-09-21T14:10:40.846Z,27.90
2018-09-21T14:13:09.058Z,27.83
2018-09-21T14:15:37.241Z,27.86
2018-09-21T14:18:05.546Z,27.86
2018-09-21T14:20:33.815Z,27.78
2018-09-21T14:23:02.125Z,27.73
2018-09-21T14:25:30.352Z,27.67
2018-09-21T14:27:58.640Z,27.47
2018-09-21T14:30:26.894Z,27.52
2018-09-21T14:32:55.116Z,27.43
2018-09-21T14:35:23.307Z,27.29
2018-09-21T14:37:51.585Z,27.28
2018-09-21T14:40:19.984Z,27.23
2018-09-21T14:42:48.539Z,27.29
2018-09-21T14:45:16.741Z,27.28
2018-09-21T14:47:44.955Z,27.33
2018-09-21T14:50:13.828Z,25.26
2018-09-21T14:52:42.008Z,23.36
2018-09-21T14:55:10.227Z,21.88
2018-09-21T14:57:38.517Z,20.77
2018-09-21T15:00:07.036Z,20.76
2018-09-21T15:02:35.264Z,20.72
2018-09-21T15:05:03.629Z,20.06
2018-09-21T15:07:31.867Z,19.89
2018-09-21T15:10:00.029Z,19.87
2018-09-21T15:12:28.239Z,19.17
2018-09-21T15:14:56.383Z,18.96
2018-09-21T15:17:24.629Z,18.33
2018-09-21T15:19:52.960Z,17.85
2018-09-21T15:22:21.141Z,17.70
2018-09-21T15:24:53.608Z,17.79
2018-09-21T15:27:21.789Z,17.79
2018-09-21T15:29:50.138Z,17.71
2018-09-21T15:32:18.362Z,17.23
2018-09-21T15:34:46.636Z,17.04
2018-09-21T15:37:15.537Z,17.18
2018-09-21T15:39:43.673Z,17.24
2018-09-21T15:42:11.891Z,17.14
2018-09-21T15:44:40.176Z,17.14
2018-09-21T15:47:08.480Z,16.90
2018-09-21T15:49:36.704Z,16.94
2018-09-21T15:52:05.636Z,16.99
2018-09-21T15:54:33.845Z,16.86
2018-09-21T15:57:02.017Z,16.85
2018-09-21T15:59:31.195Z,16.82
2018-09-21T16:01:59.429Z,16.83
2018-09-21T16:04:27.823Z,16.66
2018-09-21T16:06:56.099Z,16.53
2018-09-21T16:09:24.827Z,16.36
2018-09-21T16:11:53.162Z,16.22
2018-09-21T16:14:21.419Z,15.91
2018-09-21T16:16:49.559Z,15.85
2018-09-21T16:19:17.939Z,15.96
2018-09-21T16:21:46.613Z,15.93
2018-09-21T16:24:14.994Z,16.16
2018-09-21T16:26:43.114Z,16.08
2018-09-21T16:29:12.357Z,15.93
2018-09-21T16:31:47.299Z,15.62
2018-09-21T16:34:15.532Z,15.51
2018-09-21T16:36:44.060Z,15.66
2018-09-21T16:39:12.765Z,15.46
2018-09-21T16:41:41.211Z,15.50
2018-09-21T16:44:09.866Z,15.48
2018-09-21T16:46:38.060Z,15.49
2018-09-21T16:49:06.332Z,15.50
2018-09-21T16:51:37.589Z,15.55
2018-09-21T16:54:10.868Z,15.64
2018-09-21T16:56:41.915Z,15.70
2018-09-21T16:59:10.794Z,15.71
2018-09-21T17:01:43.381Z,15.57
2018-09-21T17:04:11.592Z,15.59
2018-09-21T17:06:39.814Z,15.58
2018-09-21T17:09:09.935Z,15.60
2018-09-21T17:11:38.371Z,15.65
2018-09-21T17:14:06.973Z,15.66
2018-09-21T17:16:35.165Z,15.57
2018-09-21T17:19:03.478Z,15.75
2018-09-21T17:21:42.939Z,15.83
2018-09-21T17:24:15.238Z,15.93
2018-09-21T17:26:43.521Z,16.03
2018-09-21T17:29:11.713Z,15.99
2018-09-21T17:31:40.030Z,16.11
2018-09-21T17:34:08.199Z,16.18
2018-09-21T17:36:36.921Z,16.25
2018-09-21T17:39:07.971Z,16.29
2018-09-21T17:44:31.103Z,16.16
2018-09-21T17:47:01.238Z,16.16
2018-09-21T17:49:29.961Z,15.95
2018-09-21T17:51:58.202Z,16.05
2018-09-21T17:54:28.681Z,16.10
2018-09-21T17:56:56.838Z,16.22
2018-09-21T17:59:25.075Z,16.06
2018-09-21T18:01:53.315Z,16.22
2018-09-21T18:04:21.555Z,16.20
2018-09-21T18:06:51.759Z,16.04
2018-09-21T18:09:21.121Z,16.09
2018-09-21T18:11:49.524Z,16.06
2018-09-21T18:14:17.731Z,16.04
2018-09-21T18:16:46.193Z,16.02
2018-09-21T18:19:14.471Z,16.04
2018-09-21T18:21:42.710Z,16.08
2018-09-21T18:24:11.903Z,16.12
2018-09-21T18:26:40.437Z,16.06
2018-09-21T18:29:08.641Z,16.12
2018-09-21T18:31:38.009Z,16.25
2018-09-21T18:34:06.193Z,16.34
2018-09-21T18:36:34.469Z,16.33
2018-09-21T18:39:02.922Z,16.28
2018-09-21T18:41:35.120Z,16.33
2018-09-21T18:44:03.731Z,16.29
2018-09-21T18:46:32.112Z,16.35
2018-09-21T18:49:00.405Z,16.28
2018-09-21T18:51:28.835Z,16.23
2018-09-21T18:53:57.201Z,16.33
2018-09-21T18:56:25.549Z,16.36
2018-09-21T18:58:53.773Z,16.30
2018-09-21T19:01:21.981Z,16.33
2018-09-21T19:03:50.320Z,16.35
2018-09-21T19:06:18.573Z,16.26
2018-09-21T19:08:47.297Z,16.16
2018-09-21T19:11:15.563Z,16.24
2018-09-21T19:13:43.792Z,16.29
2018-09-21T19:16:12.086Z,16.37
2018-09-21T19:18:40.305Z,16.18
2018-09-21T19:21:08.572Z,16.22
2018-09-21T19:23:37.038Z,16.35
2018-09-21T19:26:05.427Z,16.28
2018-09-21T19:28:33.817Z,16.36
2018-09-21T19:31:02.026Z,16.16
2018-09-21T19:33:30.330Z,16.25
2018-09-21T19:36:00.767Z,16.16
2018-09-21T19:38:29.176Z,16.15
2018-09-21T19:40:57.463Z,16.15
2018-09-21T19:43:25.696Z,16.12
2018-09-21T19:45:54.019Z,16.08
2018-09-21T19:48:22.365Z,16.05
2018-09-21T19:50:50.479Z,16.17
2018-09-21T19:53:18.679Z,16.13
2018-09-21T19:55:46.899Z,16.16
2018-09-21T19:58:15.152Z,16.20
2018-09-21T20:00:43.371Z,16.24
2018-09-21T20:03:11.614Z,16.33
2018-09-21T20:05:40.368Z,16.09
2018-09-21T20:08:08.580Z,16.30
2018-09-21T20:10:36.793Z,16.14
2018-09-21T20:13:05.010Z,16.09
2018-09-21T20:15:36.220Z,15.98
2018-09-21T20:18:04.491Z,16.04
2018-09-21T20:20:35.236Z,16.14
2018-09-21T20:23:05.248Z,16.05
2018-09-21T20:25:33.565Z,16.04
2018-09-21T20:28:01.776Z,15.90
2018-09-21T20:30:35.495Z,16.02
2018-09-21T20:33:10.557Z,15.83
2018-09-21T20:35:40.494Z,15.81
2018-09-21T20:38:08.647Z,15.73
2018-09-21T20:40:36.867Z,15.63
2018-09-21T20:43:05.065Z,15.67
2018-09-21T20:45:33.245Z,15.66
2018-09-21T20:48:01.464Z,15.61
2018-09-21T20:50:29.770Z,15.54
2018-09-21T20:52:58.470Z,15.49
2018-09-21T20:55:26.659Z,15.52
2018-09-21T20:57:54.952Z,15.59
2018-09-21T21:00:23.256Z,15.49
2018-09-21T21:02:51.478Z,15.31
2018-09-21T21:05:19.963Z,15.44
2018-09-21T21:07:48.137Z,15.44
2018-09-21T21:10:16.364Z,15.40
2018-09-21T21:12:44.644Z,15.32
2018-09-21T21:15:12.850Z,15.30
2018-09-21T21:17:41.921Z,15.30
2018-09-21T21:20:10.261Z,15.27
2018-09-21T21:22:38.414Z,15.23
2018-09-21T21:25:06.774Z,15.20
2018-09-21T21:27:35.136Z,15.15
2018-09-21T21:30:03.352Z,15.11
2018-09-21T21:32:31.676Z,15.14
2018-09-21T21:35:00.027Z,15.08
2018-09-21T21:37:28.336Z,15.20
2018-09-21T21:39:56.531Z,15.08
2018-09-21T21:42:24.696Z,15.20
2018-09-21T21:44:59.570Z,15.17
2018-09-21T21:47:27.792Z,15.26
2018-09-21T21:49:56.014Z,15.29
2018-09-21T21:52:24.238Z,15.33
2018-09-21T21:54:52.441Z,15.29
2018-09-21T21:57:20.799Z,15.10
2018-09-21T21:59:49.170Z,15.00
2018-09-21T22:02:17.380Z,14.96
2018-09-21T22:04:45.575Z,15.05
2018-09-21T22:07:13.752Z,15.03
2018-09-21T22:09:42.071Z,14.99
2018-09-21T22:12:15.778Z,14.86
2018-09-21T22:14:44.656Z,14.82
2018-09-21T22:17:12.880Z,14.70
2018-09-21T22:19:41.046Z,14.70
2018-09-21T22:22:09.192Z,14.75
2018-09-21T22:24:37.387Z,14.74
2018-09-21T22:27:05.700Z,14.71
2018-09-21T22:29:33.847Z,14.56
2018-09-21T22:32:02.046Z,14.53
2018-09-21T22:34:30.229Z,14.53
2018-09-21T22:36:58.572Z,14.62
2018-09-21T22:39:27.360Z,14.53
2018-09-21T22:41:55.543Z,14.74
2018-09-21T22:44:23.808Z,14.50
2018-09-21T22:46:52.000Z,14.38
2018-09-21T22:49:22.645Z,14.47
2018-09-21T22:51:51.103Z,14.40
2018-09-21T22:54:19.276Z,14.53
2018-09-21T22:56:47.448Z,14.55
2018-09-21T22:59:15.733Z,14.38
2018-09-21T23:01:43.908Z,14.45
2018-09-21T23:04:12.160Z,14.33
2018-09-21T23:06:40.415Z,14.24
2018-09-21T23:09:10.492Z,14.33
2018-09-21T23:11:38.874Z,14.18
2018-09-21T23:14:07.096Z,14.20
2018-09-21T23:16:35.320Z,14.26
2018-09-21T23:19:03.582Z,14.16
2018-09-21T23:21:32.667Z,14.05
2018-09-21T23:24:00.965Z,14.20
2018-09-21T23:26:29.164Z,14.28
2018-09-21T23:28:57.476Z,14.44
2018-09-21T23:31:25.904Z,14.37
2018-09-21T23:33:54.052Z,14.42
2018-09-21T23:36:22.635Z,14.44
2018-09-21T23:38:51.253Z,14.30
2018-09-21T23:41:19.464Z,14.22
2018-09-21T23:43:47.732Z,14.32
2018-09-21T23:46:16.026Z,14.14
2018-09-21T23:48:44.234Z,14.15
2018-09-21T23:51:12.476Z,14.21
2018-09-21T23:53:40.902Z,14.18
2018-09-21T23:56:09.608Z,14.21
2018-09-21T23:58:38.265Z,14.03
